Terminal Aerodrome Forecast
Issued by NWS

Home | Current Version | Previous Version | Graphics & Text | Print | Product List | Glossary On
Versions: 1 2 3 4 5 6 7 8 9 10 11 12 13 14 15 16 17 18 19 20
000
FTUS43 KGRB 211135
TAFMTW
TAF
KMTW 211135Z 2112/2212 00000KT 3SM BR OVC250
      TEMPO 2112/2114 1SM BR
     FM211500 VRB03KT 5SM BR BKN250
     FM212200 06005KT P6SM OVC080
     FM220500 05008KT 3SM -RA BR OVC010
     FM220800 05010KT 1SM -RA BR OVC005=

USA.gov is the U.S. government's official web portal to all federal, state and local government web resources and services.